sensor_id;sensor_type;location;lat;lon;timestamp;temperature;humidity
32809;DHT22;19159;48.178;16.386;2023-07-08T00:00:51;25.60;68.80
32809;DHT22;19159;48.178;16.386;2023-07-08T00:03:18;25.50;68.30
32809;DHT22;19159;48.178;16.386;2023-07-08T00:05:45;25.50;68.40
32809;DHT22;19159;48.178;16.386;2023-07-08T00:08:15;25.50;68.50
32809;DHT22;19159;48.178;16.386;2023-07-08T00:10:41;25.40;68.60
32809;DHT22;19159;48.178;16.386;2023-07-08T00:13:08;25.40;68.70
32809;DHT22;19159;48.178;16.386;2023-07-08T00:15:34;25.30;69.00
32809;DHT22;19159;48.178;16.386;2023-07-08T00:18:03;25.30;69.10
32809;DHT22;19159;48.178;16.386;2023-07-08T00:20:35;25.30;69.30
32809;DHT22;19159;48.178;16.386;2023-07-08T00:23:02;25.20;69.30
32809;DHT22;19159;48.178;16.386;2023-07-08T00:25:28;25.20;69.80
32809;DHT22;19159;48.178;16.386;2023-07-08T00:27:55;25.10;69.90
32809;DHT22;19159;48.178;16.386;2023-07-08T00:30:31;25.20;70.30
32809;DHT22;19159;48.178;16.386;2023-07-08T00:32:58;25.10;70.30
32809;DHT22;19159;48.178;16.386;2023-07-08T00:35:33;25.10;70.50
32809;DHT22;19159;48.178;16.386;2023-07-08T00:37:59;25.00;70.70
32809;DHT22;19159;48.178;16.386;2023-07-08T00:40:32;25.00;70.70
32809;DHT22;19159;48.178;16.386;2023-07-08T00:43:02;24.90;70.90
32809;DHT22;19159;48.178;16.386;2023-07-08T00:48:08;24.90;71.60
32809;DHT22;19159;48.178;16.386;2023-07-08T00:50:36;24.90;71.40
32809;DHT22;19159;48.178;16.386;2023-07-08T00:53:24;24.90;71.40
32809;DHT22;19159;48.178;16.386;2023-07-08T00:55:52;24.90;71.70
32809;DHT22;19159;48.178;16.386;2023-07-08T00:58:20;24.80;71.30
32809;DHT22;19159;48.178;16.386;2023-07-08T01:00:46;24.80;71.50
32809;DHT22;19159;48.178;16.386;2023-07-08T01:03:15;24.80;71.80
32809;DHT22;19159;48.178;16.386;2023-07-08T01:05:43;24.80;72.20
32809;DHT22;19159;48.178;16.386;2023-07-08T01:08:09;24.80;72.40
32809;DHT22;19159;48.178;16.386;2023-07-08T01:10:42;24.80;72.60
32809;DHT22;19159;48.178;16.386;2023-07-08T01:13:09;24.70;72.80
32809;DHT22;19159;48.178;16.386;2023-07-08T01:15:42;24.80;72.90
32809;DHT22;19159;48.178;16.386;2023-07-08T01:18:09;24.80;72.90
32809;DHT22;19159;48.178;16.386;2023-07-08T01:20:37;24.90;73.40
32809;DHT22;19159;48.178;16.386;2023-07-08T01:23:02;24.90;72.70
32809;DHT22;19159;48.178;16.386;2023-07-08T01:25:31;24.90;72.40
32809;DHT22;19159;48.178;16.386;2023-07-08T01:27:57;24.90;72.20
32809;DHT22;19159;48.178;16.386;2023-07-08T01:30:23;24.90;73.40
32809;DHT22;19159;48.178;16.386;2023-07-08T01:32:51;24.80;72.80
32809;DHT22;19159;48.178;16.386;2023-07-08T01:35:20;24.80;73.20
32809;DHT22;19159;48.178;16.386;2023-07-08T01:37:51;24.80;73.40
32809;DHT22;19159;48.178;16.386;2023-07-08T01:40:25;24.80;73.10
32809;DHT22;19159;48.178;16.386;2023-07-08T01:42:51;24.80;72.90
32809;DHT22;19159;48.178;16.386;2023-07-08T01:45:19;24.80;72.90
32809;DHT22;19159;48.178;16.386;2023-07-08T01:47:49;24.70;73.00
32809;DHT22;19159;48.178;16.386;2023-07-08T01:50:16;24.70;73.40
32809;DHT22;19159;48.178;16.386;2023-07-08T01:52:42;24.70;73.40
32809;DHT22;19159;48.178;16.386;2023-07-08T01:55:08;24.60;73.50
32809;DHT22;19159;48.178;16.386;2023-07-08T01:57:33;24.60;73.70
32809;DHT22;19159;48.178;16.386;2023-07-08T01:59:59;24.50;73.70
32809;DHT22;19159;48.178;16.386;2023-07-08T02:02:25;24.50;73.80
32809;DHT22;19159;48.178;16.386;2023-07-08T02:04:51;24.40;73.70
32809;DHT22;19159;48.178;16.386;2023-07-08T02:07:16;24.40;73.70
32809;DHT22;19159;48.178;16.386;2023-07-08T02:09:42;24.40;73.70
32809;DHT22;19159;48.178;16.386;2023-07-08T02:12:08;24.30;73.80
32809;DHT22;19159;48.178;16.386;2023-07-08T02:14:33;24.20;73.80
32809;DHT22;19159;48.178;16.386;2023-07-08T02:16:59;24.20;73.90
32809;DHT22;19159;48.178;16.386;2023-07-08T02:19:25;24.10;73.80
32809;DHT22;19159;48.178;16.386;2023-07-08T02:21:51;24.10;73.80
32809;DHT22;19159;48.178;16.386;2023-07-08T02:24:20;24.10;73.70
32809;DHT22;19159;48.178;16.386;2023-07-08T02:26:47;24.10;73.50
32809;DHT22;19159;48.178;16.386;2023-07-08T02:29:13;24.10;73.40
32809;DHT22;19159;48.178;16.386;2023-07-08T02:31:38;24.10;73.40
32809;DHT22;19159;48.178;16.386;2023-07-08T02:34:04;24.10;73.40
32809;DHT22;19159;48.178;16.386;2023-07-08T02:36:29;24.00;73.40
32809;DHT22;19159;48.178;16.386;2023-07-08T02:38:55;24.00;73.40
32809;DHT22;19159;48.178;16.386;2023-07-08T02:41:21;24.00;74.50
32809;DHT22;19159;48.178;16.386;2023-07-08T02:43:46;23.90;74.00
32809;DHT22;19159;48.178;16.386;2023-07-08T02:46:12;23.90;74.20
32809;DHT22;19159;48.178;16.386;2023-07-08T02:48:37;23.90;74.50
32809;DHT22;19159;48.178;16.386;2023-07-08T02:51:04;23.90;74.30
32809;DHT22;19159;48.178;16.386;2023-07-08T02:53:30;23.90;74.00
32809;DHT22;19159;48.178;16.386;2023-07-08T02:55:56;23.90;74.10
32809;DHT22;19159;48.178;16.386;2023-07-08T02:58:22;23.90;74.30
32809;DHT22;19159;48.178;16.386;2023-07-08T03:00:52;23.90;74.70
32809;DHT22;19159;48.178;16.386;2023-07-08T03:03:18;23.80;74.90
32809;DHT22;19159;48.178;16.386;2023-07-08T03:05:43;23.80;74.90
32809;DHT22;19159;48.178;16.386;2023-07-08T03:08:09;23.90;75.10
32809;DHT22;19159;48.178;16.386;2023-07-08T03:10:34;23.80;75.10
32809;DHT22;19159;48.178;16.386;2023-07-08T03:13:00;23.80;75.50
32809;DHT22;19159;48.178;16.386;2023-07-08T03:15:25;23.80;75.40
32809;DHT22;19159;48.178;16.386;2023-07-08T03:17:51;23.80;75.30
32809;DHT22;19159;48.178;16.386;2023-07-08T03:20:22;23.80;74.90
32809;DHT22;19159;48.178;16.386;2023-07-08T03:22:48;23.80;74.80
32809;DHT22;19159;48.178;16.386;2023-07-08T03:25:13;23.80;74.70
32809;DHT22;19159;48.178;16.386;2023-07-08T03:27:39;23.80;74.70
32809;DHT22;19159;48.178;16.386;2023-07-08T03:30:05;23.70;74.80
32809;DHT22;19159;48.178;16.386;2023-07-08T03:32:31;23.70;74.90
32809;DHT22;19159;48.178;16.386;2023-07-08T03:34:56;23.70;75.10
32809;DHT22;19159;48.178;16.386;2023-07-08T03:37:22;23.70;75.50
32809;DHT22;19159;48.178;16.386;2023-07-08T03:39:48;23.70;75.30
32809;DHT22;19159;48.178;16.386;2023-07-08T03:42:13;23.60;75.40
32809;DHT22;19159;48.178;16.386;2023-07-08T03:44:39;23.70;75.70
32809;DHT22;19159;48.178;16.386;2023-07-08T03:47:04;23.70;75.80
32809;DHT22;19159;48.178;16.386;2023-07-08T03:49:30;23.70;75.60
32809;DHT22;19159;48.178;16.386;2023-07-08T03:51:55;23.70;75.40
32809;DHT22;19159;48.178;16.386;2023-07-08T03:54:23;23.70;75.60
32809;DHT22;19159;48.178;16.386;2023-07-08T03:56:49;23.70;76.00
32809;DHT22;19159;48.178;16.386;2023-07-08T03:59:15;23.70;76.00
32809;DHT22;19159;48.178;16.386;2023-07-08T04:01:40;23.70;76.00
32809;DHT22;19159;48.178;16.386;2023-07-08T04:04:08;23.70;76.50
32809;DHT22;19159;48.178;16.386;2023-07-08T04:06:34;23.80;75.80
32809;DHT22;19159;48.178;16.386;2023-07-08T04:09:00;23.70;75.90
32809;DHT22;19159;48.178;16.386;2023-07-08T04:11:26;23.70;76.00
32809;DHT22;19159;48.178;16.386;2023-07-08T04:13:52;23.70;75.80
32809;DHT22;19159;48.178;16.386;2023-07-08T04:16:28;23.70;75.80
32809;DHT22;19159;48.178;16.386;2023-07-08T04:18:55;23.70;76.70
32809;DHT22;19159;48.178;16.386;2023-07-08T04:21:22;23.70;76.70
32809;DHT22;19159;48.178;16.386;2023-07-08T04:23:48;23.70;76.00
32809;DHT22;19159;48.178;16.386;2023-07-08T04:26:15;23.80;75.90
32809;DHT22;19159;48.178;16.386;2023-07-08T04:28:41;23.80;76.60
32809;DHT22;19159;48.178;16.386;2023-07-08T04:31:07;23.90;75.90
32809;DHT22;19159;48.178;16.386;2023-07-08T04:33:33;24.10;75.80
32809;DHT22;19159;48.178;16.386;2023-07-08T04:35:58;24.20;75.30
32809;DHT22;19159;48.178;16.386;2023-07-08T04:38:25;24.40;74.90
32809;DHT22;19159;48.178;16.386;2023-07-08T04:40:52;24.60;74.20
32809;DHT22;19159;48.178;16.386;2023-07-08T04:43:19;24.80;73.60
32809;DHT22;19159;48.178;16.386;2023-07-08T04:45:50;24.90;73.50
32809;DHT22;19159;48.178;16.386;2023-07-08T04:48:17;24.90;73.50
32809;DHT22;19159;48.178;16.386;2023-07-08T04:50:48;25.10;73.40
32809;DHT22;19159;48.178;16.386;2023-07-08T04:53:14;25.20;73.20
32809;DHT22;19159;48.178;16.386;2023-07-08T04:55:58;25.40;73.30
32809;DHT22;19159;48.178;16.386;2023-07-08T04:58:24;25.60;73.00
32809;DHT22;19159;48.178;16.386;2023-07-08T05:00:50;25.80;72.80
32809;DHT22;19159;48.178;16.386;2023-07-08T05:03:15;26.00;72.50
32809;DHT22;19159;48.178;16.386;2023-07-08T05:05:41;26.20;71.90
32809;DHT22;19159;48.178;16.386;2023-07-08T05:08:07;26.40;71.80
32809;DHT22;19159;48.178;16.386;2023-07-08T05:10:33;26.50;71.20
32809;DHT22;19159;48.178;16.386;2023-07-08T05:13:00;26.70;71.10
32809;DHT22;19159;48.178;16.386;2023-07-08T05:15:26;27.00;70.50
32809;DHT22;19159;48.178;16.386;2023-07-08T05:17:51;27.10;70.10
32809;DHT22;19159;48.178;16.386;2023-07-08T05:20:18;27.20;70.10
32809;DHT22;19159;48.178;16.386;2023-07-08T05:22:44;27.20;69.80
32809;DHT22;19159;48.178;16.386;2023-07-08T05:25:11;27.30;69.80
32809;DHT22;19159;48.178;16.386;2023-07-08T05:27:37;27.50;70.10
32809;DHT22;19159;48.178;16.386;2023-07-08T05:30:05;27.70;69.80
32809;DHT22;19159;48.178;16.386;2023-07-08T05:32:31;27.90;69.70
32809;DHT22;19159;48.178;16.386;2023-07-08T05:34:57;28.20;69.60
32809;DHT22;19159;48.178;16.386;2023-07-08T05:37:23;28.20;69.60
32809;DHT22;19159;48.178;16.386;2023-07-08T05:39:56;28.30;69.00
32809;DHT22;19159;48.178;16.386;2023-07-08T05:42:23;28.50;68.70
32809;DHT22;19159;48.178;16.386;2023-07-08T05:44:48;28.60;68.70
32809;DHT22;19159;48.178;16.386;2023-07-08T05:47:16;28.90;68.20
32809;DHT22;19159;48.178;16.386;2023-07-08T05:49:42;28.80;67.40
32809;DHT22;19159;48.178;16.386;2023-07-08T05:52:08;28.70;67.10
32809;DHT22;19159;48.178;16.386;2023-07-08T05:54:40;28.80;67.00
32809;DHT22;19159;48.178;16.386;2023-07-08T05:57:07;29.10;66.10
32809;DHT22;19159;48.178;16.386;2023-07-08T05:59:34;29.20;65.00
32809;DHT22;19159;48.178;16.386;2023-07-08T06:02:00;29.50;65.00
32809;DHT22;19159;48.178;16.386;2023-07-08T06:04:27;29.80;64.50
32809;DHT22;19159;48.178;16.386;2023-07-08T06:06:53;30.10;63.90
32809;DHT22;19159;48.178;16.386;2023-07-08T06:09:19;30.10;63.30
32809;DHT22;19159;48.178;16.386;2023-07-08T06:11:45;30.30;63.10
32809;DHT22;19159;48.178;16.386;2023-07-08T06:14:11;30.30;62.30
32809;DHT22;19159;48.178;16.386;2023-07-08T06:16:36;30.40;61.70
32809;DHT22;19159;48.178;16.386;2023-07-08T06:19:02;30.50;61.20
32809;DHT22;19159;48.178;16.386;2023-07-08T06:21:28;30.30;60.60
32809;DHT22;19159;48.178;16.386;2023-07-08T06:23:53;30.20;60.90
32809;DHT22;19159;48.178;16.386;2023-07-08T06:26:19;30.50;60.80
32809;DHT22;19159;48.178;16.386;2023-07-08T06:28:45;30.80;60.40
32809;DHT22;19159;48.178;16.386;2023-07-08T06:31:10;30.90;60.00
32809;DHT22;19159;48.178;16.386;2023-07-08T06:33:36;31.10;60.10
32809;DHT22;19159;48.178;16.386;2023-07-08T06:36:02;31.10;59.30
32809;DHT22;19159;48.178;16.386;2023-07-08T06:38:28;31.50;59.30
32809;DHT22;19159;48.178;16.386;2023-07-08T06:40:53;31.60;58.40
32809;DHT22;19159;48.178;16.386;2023-07-08T06:43:19;31.80;57.90
32809;DHT22;19159;48.178;16.386;2023-07-08T06:45:44;31.70;57.90
32809;DHT22;19159;48.178;16.386;2023-07-08T06:48:10;31.80;58.00
32809;DHT22;19159;48.178;16.386;2023-07-08T06:50:35;31.90;57.90
32809;DHT22;19159;48.178;16.386;2023-07-08T06:53:01;32.10;58.30
32809;DHT22;19159;48.178;16.386;2023-07-08T06:55:27;32.20;58.30
32809;DHT22;19159;48.178;16.386;2023-07-08T06:57:54;32.40;58.30
32809;DHT22;19159;48.178;16.386;2023-07-08T07:00:20;31.80;57.60
32809;DHT22;19159;48.178;16.386;2023-07-08T07:02:45;31.80;57.90
32809;DHT22;19159;48.178;16.386;2023-07-08T07:05:11;32.00;58.10
32809;DHT22;19159;48.178;16.386;2023-07-08T07:07:36;32.30;57.80
32809;DHT22;19159;48.178;16.386;2023-07-08T07:10:03;32.50;57.40
32809;DHT22;19159;48.178;16.386;2023-07-08T07:12:29;32.70;57.60
32809;DHT22;19159;48.178;16.386;2023-07-08T07:14:54;32.80;57.30
32809;DHT22;19159;48.178;16.386;2023-07-08T07:17:24;32.60;56.70
32809;DHT22;19159;48.178;16.386;2023-07-08T07:19:50;32.50;57.30
32809;DHT22;19159;48.178;16.386;2023-07-08T07:22:16;32.80;57.50
32809;DHT22;19159;48.178;16.386;2023-07-08T07:24:42;32.80;57.50
32809;DHT22;19159;48.178;16.386;2023-07-08T07:27:08;32.70;57.40
32809;DHT22;19159;48.178;16.386;2023-07-08T07:29:45;32.60;57.50
32809;DHT22;19159;48.178;16.386;2023-07-08T07:32:11;32.70;57.50
32809;DHT22;19159;48.178;16.386;2023-07-08T07:34:38;32.80;57.70
32809;DHT22;19159;48.178;16.386;2023-07-08T07:37:06;32.90;57.90
32809;DHT22;19159;48.178;16.386;2023-07-08T07:39:32;32.70;57.80
32809;DHT22;19159;48.178;16.386;2023-07-08T07:41:57;32.80;58.50
32809;DHT22;19159;48.178;16.386;2023-07-08T07:44:23;32.60;58.10
32809;DHT22;19159;48.178;16.386;2023-07-08T07:46:51;32.10;58.40
32809;DHT22;19159;48.178;16.386;2023-07-08T07:49:17;32.30;58.90
32809;DHT22;19159;48.178;16.386;2023-07-08T07:51:43;32.50;58.50
32809;DHT22;19159;48.178;16.386;2023-07-08T07:54:09;32.50;58.60
32809;DHT22;19159;48.178;16.386;2023-07-08T07:56:35;32.00;59.10
32809;DHT22;19159;48.178;16.386;2023-07-08T07:59:01;31.70;59.50
32809;DHT22;19159;48.178;16.386;2023-07-08T08:01:27;31.50;59.90
32809;DHT22;19159;48.178;16.386;2023-07-08T08:03:53;31.30;60.00
32809;DHT22;19159;48.178;16.386;2023-07-08T08:06:18;31.10;60.70
32809;DHT22;19159;48.178;16.386;2023-07-08T08:08:45;30.90;60.80
32809;DHT22;19159;48.178;16.386;2023-07-08T08:11:11;31.00;61.10
32809;DHT22;19159;48.178;16.386;2023-07-08T08:13:37;31.10;61.30
32809;DHT22;19159;48.178;16.386;2023-07-08T08:16:03;30.90;59.60
32809;DHT22;19159;48.178;16.386;2023-07-08T08:18:29;30.80;60.10
32809;DHT22;19159;48.178;16.386;2023-07-08T08:20:55;30.80;60.20
32809;DHT22;19159;48.178;16.386;2023-07-08T08:23:21;30.80;59.90
32809;DHT22;19159;48.178;16.386;2023-07-08T08:25:46;30.80;60.40
32809;DHT22;19159;48.178;16.386;2023-07-08T08:28:12;30.90;60.70
32809;DHT22;19159;48.178;16.386;2023-07-08T08:30:38;31.00;61.40
32809;DHT22;19159;48.178;16.386;2023-07-08T08:33:03;31.20;60.50
32809;DHT22;19159;48.178;16.386;2023-07-08T08:35:29;31.30;60.10
32809;DHT22;19159;48.178;16.386;2023-07-08T08:37:54;31.40;59.80
32809;DHT22;19159;48.178;16.386;2023-07-08T08:40:20;31.40;59.90
32809;DHT22;19159;48.178;16.386;2023-07-08T08:42:53;31.30;59.50
32809;DHT22;19159;48.178;16.386;2023-07-08T08:45:23;31.20;59.40
32809;DHT22;19159;48.178;16.386;2023-07-08T08:47:58;31.10;59.80
32809;DHT22;19159;48.178;16.386;2023-07-08T08:50:39;31.10;60.30
32809;DHT22;19159;48.178;16.386;2023-07-08T08:53:12;30.90;60.20
32809;DHT22;19159;48.178;16.386;2023-07-08T08:55:39;30.80;59.90
32809;DHT22;19159;48.178;16.386;2023-07-08T09:01:03;30.40;61.00
32809;DHT22;19159;48.178;16.386;2023-07-08T09:08:44;30.50;60.50
32809;DHT22;19159;48.178;16.386;2023-07-08T09:13:59;30.60;61.40
32809;DHT22;19159;48.178;16.386;2023-07-08T09:17:30;30.40;61.50
32809;DHT22;19159;48.178;16.386;2023-07-08T09:19:30;30.50;62.20
32809;DHT22;19159;48.178;16.386;2023-07-08T09:22:05;30.60;61.60
32809;DHT22;19159;48.178;16.386;2023-07-08T09:24:43;30.70;60.70
32809;DHT22;19159;48.178;16.386;2023-07-08T09:27:09;30.90;60.60
32809;DHT22;19159;48.178;16.386;2023-07-08T09:29:34;31.10;60.50
32809;DHT22;19159;48.178;16.386;2023-07-08T09:34:49;31.20;60.00
32809;DHT22;19159;48.178;16.386;2023-07-08T09:37:27;31.10;59.30
32809;DHT22;19159;48.178;16.386;2023-07-08T09:39:55;31.00;59.40
32809;DHT22;19159;48.178;16.386;2023-07-08T09:42:23;31.10;59.40
32809;DHT22;19159;48.178;16.386;2023-07-08T09:44:59;31.20;59.40
32809;DHT22;19159;48.178;16.386;2023-07-08T09:47:30;31.30;58.90
32809;DHT22;19159;48.178;16.386;2023-07-08T09:49:59;31.10;58.70
32809;DHT22;19159;48.178;16.386;2023-07-08T09:52:25;31.10;59.10
32809;DHT22;19159;48.178;16.386;2023-07-08T09:54:51;31.10;59.60
32809;DHT22;19159;48.178;16.386;2023-07-08T09:57:27;30.90;59.10
32809;DHT22;19159;48.178;16.386;2023-07-08T09:59:57;31.00;59.30
32809;DHT22;19159;48.178;16.386;2023-07-08T10:05:53;31.20;58.40
32809;DHT22;19159;48.178;16.386;2023-07-08T10:07:56;31.10;57.20
32809;DHT22;19159;48.178;16.386;2023-07-08T10:10:37;31.10;58.10
32809;DHT22;19159;48.178;16.386;2023-07-08T10:13:34;30.90;58.00
32809;DHT22;19159;48.178;16.386;2023-07-08T10:16:13;31.10;57.90
32809;DHT22;19159;48.178;16.386;2023-07-08T10:18:40;31.30;57.50
32809;DHT22;19159;48.178;16.386;2023-07-08T10:23:53;30.80;57.20
32809;DHT22;19159;48.178;16.386;2023-07-08T10:26:32;30.70;57.90
32809;DHT22;19159;48.178;16.386;2023-07-08T10:32:28;30.70;58.30
32809;DHT22;19159;48.178;16.386;2023-07-08T10:38:27;31.10;57.70
32809;DHT22;19159;48.178;16.386;2023-07-08T10:44:07;31.40;57.20
32809;DHT22;19159;48.178;16.386;2023-07-08T10:49:28;31.20;56.40
32809;DHT22;19159;48.178;16.386;2023-07-08T10:54:32;31.10;56.60
32809;DHT22;19159;48.178;16.386;2023-07-08T11:00:07;31.10;56.90
32809;DHT22;19159;48.178;16.386;2023-07-08T11:02:59;31.40;55.00
32809;DHT22;19159;48.178;16.386;2023-07-08T11:05:43;31.40;54.40
32809;DHT22;19159;48.178;16.386;2023-07-08T11:08:23;31.50;53.90
32809;DHT22;19159;48.178;16.386;2023-07-08T11:11:01;31.60;54.10
32809;DHT22;19159;48.178;16.386;2023-07-08T11:13:30;31.60;53.70
32809;DHT22;19159;48.178;16.386;2023-07-08T11:16:19;31.80;54.10
32809;DHT22;19159;48.178;16.386;2023-07-08T11:21:40;31.90;53.70
32809;DHT22;19159;48.178;16.386;2023-07-08T11:24:28;31.80;54.50
32809;DHT22;19159;48.178;16.386;2023-07-08T11:27:15;31.80;54.20
32809;DHT22;19159;48.178;16.386;2023-07-08T11:29:50;32.00;54.10
32809;DHT22;19159;48.178;16.386;2023-07-08T11:32:21;32.10;54.00
32809;DHT22;19159;48.178;16.386;2023-07-08T11:34:52;32.20;54.10
32809;DHT22;19159;48.178;16.386;2023-07-08T11:37:19;32.30;54.10
32809;DHT22;19159;48.178;16.386;2023-07-08T11:39:54;32.50;54.10
32809;DHT22;19159;48.178;16.386;2023-07-08T11:44:55;32.40;53.30
32809;DHT22;19159;48.178;16.386;2023-07-08T11:47:33;32.20;53.00
32809;DHT22;19159;48.178;16.386;2023-07-08T11:50:00;32.10;52.80
32809;DHT22;19159;48.178;16.386;2023-07-08T11:52:29;32.20;53.00
32809;DHT22;19159;48.178;16.386;2023-07-08T11:55:00;32.20;52.70
32809;DHT22;19159;48.178;16.386;2023-07-08T11:57:30;32.20;52.80
32809;DHT22;19159;48.178;16.386;2023-07-08T12:00:22;32.30;52.60
32809;DHT22;19159;48.178;16.386;2023-07-08T12:03:18;32.20;51.70
32809;DHT22;19159;48.178;16.386;2023-07-08T12:05:44;32.20;51.50
32809;DHT22;19159;48.178;16.386;2023-07-08T12:08:14;32.10;51.50
32809;DHT22;19159;48.178;16.386;2023-07-08T12:10:45;32.10;51.60
32809;DHT22;19159;48.178;16.386;2023-07-08T12:13:14;32.20;51.20
32809;DHT22;19159;48.178;16.386;2023-07-08T12:15:41;32.10;51.30
32809;DHT22;19159;48.178;16.386;2023-07-08T12:20:37;32.20;51.20
32809;DHT22;19159;48.178;16.386;2023-07-08T12:23:12;32.30;51.40
32809;DHT22;19159;48.178;16.386;2023-07-08T12:25:38;32.30;51.20
32809;DHT22;19159;48.178;16.386;2023-07-08T12:28:03;32.20;51.20
32809;DHT22;19159;48.178;16.386;2023-07-08T12:30:31;32.10;50.90
32809;DHT22;19159;48.178;16.386;2023-07-08T12:32:58;32.10;50.80
32809;DHT22;19159;48.178;16.386;2023-07-08T12:35:33;32.10;51.20
32809;DHT22;19159;48.178;16.386;2023-07-08T12:38:18;32.10;50.90
32809;DHT22;19159;48.178;16.386;2023-07-08T12:40:44;32.10;50.90
32809;DHT22;19159;48.178;16.386;2023-07-08T12:43:10;32.00;51.00
32809;DHT22;19159;48.178;16.386;2023-07-08T12:45:36;32.10;50.90
32809;DHT22;19159;48.178;16.386;2023-07-08T12:48:02;32.20;50.70
32809;DHT22;19159;48.178;16.386;2023-07-08T12:50:28;32.10;50.80
32809;DHT22;19159;48.178;16.386;2023-07-08T12:52:54;32.00;50.80
32809;DHT22;19159;48.178;16.386;2023-07-08T12:55:19;31.90;50.70
32809;DHT22;19159;48.178;16.386;2023-07-08T12:57:47;31.80;51.00
32809;DHT22;19159;48.178;16.386;2023-07-08T13:03:00;31.90;51.40
32809;DHT22;19159;48.178;16.386;2023-07-08T13:05:28;32.10;51.40
32809;DHT22;19159;48.178;16.386;2023-07-08T13:07:55;31.90;51.00
32809;DHT22;19159;48.178;16.386;2023-07-08T13:10:24;32.00;51.20
32809;DHT22;19159;48.178;16.386;2023-07-08T13:12:58;32.10;51.20
32809;DHT22;19159;48.178;16.386;2023-07-08T13:15:31;32.10;51.20
32809;DHT22;19159;48.178;16.386;2023-07-08T13:17:59;32.20;51.40
32809;DHT22;19159;48.178;16.386;2023-07-08T13:20:25;32.30;51.40
32809;DHT22;19159;48.178;16.386;2023-07-08T13:22:59;32.20;50.90
32809;DHT22;19159;48.178;16.386;2023-07-08T13:25:31;32.10;51.20
32809;DHT22;19159;48.178;16.386;2023-07-08T13:28:19;32.20;51.70
32809;DHT22;19159;48.178;16.386;2023-07-08T13:30:55;32.40;52.40
32809;DHT22;19159;48.178;16.386;2023-07-08T13:33:23;32.50;52.20
32809;DHT22;19159;48.178;16.386;2023-07-08T13:35:50;32.30;51.00
32809;DHT22;19159;48.178;16.386;2023-07-08T13:38:19;32.20;51.30
32809;DHT22;19159;48.178;16.386;2023-07-08T13:40:52;32.30;51.60
32809;DHT22;19159;48.178;16.386;2023-07-08T13:43:27;32.30;51.60
32809;DHT22;19159;48.178;16.386;2023-07-08T13:45:53;32.20;51.50
32809;DHT22;19159;48.178;16.386;2023-07-08T13:48:29;32.30;51.60
32809;DHT22;19159;48.178;16.386;2023-07-08T13:56:11;32.40;51.40
32809;DHT22;19159;48.178;16.386;2023-07-08T13:58:43;32.50;51.60
32809;DHT22;19159;48.178;16.386;2023-07-08T14:01:22;32.40;51.60
32809;DHT22;19159;48.178;16.386;2023-07-08T14:03:49;32.40;51.60
32809;DHT22;19159;48.178;16.386;2023-07-08T14:06:16;32.50;51.90
32809;DHT22;19159;48.178;16.386;2023-07-08T14:08:42;32.50;51.50
32809;DHT22;19159;48.178;16.386;2023-07-08T14:11:08;32.40;51.70
32809;DHT22;19159;48.178;16.386;2023-07-08T14:13:34;32.40;52.30
32809;DHT22;19159;48.178;16.386;2023-07-08T14:16:01;32.40;51.30
32809;DHT22;19159;48.178;16.386;2023-07-08T14:18:27;32.30;51.50
32809;DHT22;19159;48.178;16.386;2023-07-08T14:20:53;32.30;51.70
32809;DHT22;19159;48.178;16.386;2023-07-08T14:23:19;32.10;51.90
32809;DHT22;19159;48.178;16.386;2023-07-08T14:25:45;32.00;52.40
32809;DHT22;19159;48.178;16.386;2023-07-08T14:28:11;32.10;52.50
32809;DHT22;19159;48.178;16.386;2023-07-08T14:30:42;32.20;52.60
32809;DHT22;19159;48.178;16.386;2023-07-08T14:33:11;32.30;52.60
32809;DHT22;19159;48.178;16.386;2023-07-08T14:35:37;32.30;52.50
32809;DHT22;19159;48.178;16.386;2023-07-08T14:38:14;32.40;52.50
32809;DHT22;19159;48.178;16.386;2023-07-08T14:40:41;32.30;52.50
32809;DHT22;19159;48.178;16.386;2023-07-08T14:43:17;32.50;52.90
32809;DHT22;19159;48.178;16.386;2023-07-08T14:45:47;32.30;52.40
32809;DHT22;19159;48.178;16.386;2023-07-08T14:48:13;32.20;52.70
32809;DHT22;19159;48.178;16.386;2023-07-08T14:50:39;32.00;53.30
32809;DHT22;19159;48.178;16.386;2023-07-08T14:53:05;32.20;53.00
32809;DHT22;19159;48.178;16.386;2023-07-08T14:55:32;32.30;52.80
32809;DHT22;19159;48.178;16.386;2023-07-08T14:57:58;32.20;52.80
32809;DHT22;19159;48.178;16.386;2023-07-08T15:00:24;32.30;52.70
32809;DHT22;19159;48.178;16.386;2023-07-08T15:02:51;32.30;52.70
32809;DHT22;19159;48.178;16.386;2023-07-08T15:05:27;32.30;52.70
32809;DHT22;19159;48.178;16.386;2023-07-08T15:07:57;32.50;52.50
32809;DHT22;19159;48.178;16.386;2023-07-08T15:10:26;32.40;52.60
32809;DHT22;19159;48.178;16.386;2023-07-08T15:15:29;32.40;52.80
32809;DHT22;19159;48.178;16.386;2023-07-08T15:17:56;32.30;52.80
32809;DHT22;19159;48.178;16.386;2023-07-08T15:20:23;32.50;52.60
32809;DHT22;19159;48.178;16.386;2023-07-08T15:22:49;32.50;52.50
32809;DHT22;19159;48.178;16.386;2023-07-08T15:25:15;32.40;52.40
32809;DHT22;19159;48.178;16.386;2023-07-08T15:27:46;32.40;52.40
32809;DHT22;19159;48.178;16.386;2023-07-08T15:30:17;32.50;52.30
32809;DHT22;19159;48.178;16.386;2023-07-08T15:32:44;32.50;52.20
32809;DHT22;19159;48.178;16.386;2023-07-08T15:35:20;32.40;51.90
32809;DHT22;19159;48.178;16.386;2023-07-08T15:37:46;32.30;52.20
32809;DHT22;19159;48.178;16.386;2023-07-08T15:40:14;32.20;53.00
32809;DHT22;19159;48.178;16.386;2023-07-08T15:42:41;32.30;52.60
32809;DHT22;19159;48.178;16.386;2023-07-08T15:45:20;32.30;52.20
32809;DHT22;19159;48.178;16.386;2023-07-08T15:47:46;32.30;52.30
32809;DHT22;19159;48.178;16.386;2023-07-08T15:50:15;32.40;52.30
32809;DHT22;19159;48.178;16.386;2023-07-08T15:52:42;32.10;52.30
32809;DHT22;19159;48.178;16.386;2023-07-08T15:55:09;32.20;52.60
32809;DHT22;19159;48.178;16.386;2023-07-08T16:00:40;32.30;52.40
32809;DHT22;19159;48.178;16.386;2023-07-08T16:03:13;32.30;52.30
32809;DHT22;19159;48.178;16.386;2023-07-08T16:05:43;32.30;52.30
32809;DHT22;19159;48.178;16.386;2023-07-08T16:08:09;32.30;52.30
32809;DHT22;19159;48.178;16.386;2023-07-08T16:10:35;32.30;52.60
32809;DHT22;19159;48.178;16.386;2023-07-08T16:13:02;32.30;52.40
32809;DHT22;19159;48.178;16.386;2023-07-08T16:15:35;32.30;52.40
32809;DHT22;19159;48.178;16.386;2023-07-08T16:18:04;32.30;52.10
32809;DHT22;19159;48.178;16.386;2023-07-08T16:20:33;32.40;52.10
32809;DHT22;19159;48.178;16.386;2023-07-08T16:22:59;32.30;51.90
32809;DHT22;19159;48.178;16.386;2023-07-08T16:25:33;32.30;51.60